Aspen, Colorado
Current Conditions -  °F | °C
As of 2:53 AM on Monday 26 Jan 2015 (Local Time) from KASE Reporting Station
Clear Clear  
Wind Chill: -5°   Ceiling: Unl
Heat Index: -5°   Visibility: 10mi
Dew Point: -9°   Wind: 0mph
Humidity: 74%   Direction: NA
Pressure: 30.41"   Gusts: NA
Location:  39.19°N, 106.81°W
Report Text: KASE 260953Z 00000KT 10SM CLR M05/M09 A3041 RMK AO2 SLP269 T10501089
Loading
Personal Weather Stations






























Interactive Weather Map New forecast layout! Learn more

10-Day Weather Forecast

Advertisements
Track Severe Weather on mobile